createdAt,value
2018-04-19T00:02:02.798Z,19.50
2018-04-19T00:04:34.379Z,19.50
2018-04-19T00:07:05.874Z,19.50
2018-04-19T00:09:36.913Z,19.40
2018-04-19T00:12:08.245Z,19.30
2018-04-19T00:14:39.581Z,19.20
2018-04-19T00:17:10.978Z,19.20
2018-04-19T00:19:42.398Z,19.20
2018-04-19T00:22:13.531Z,19.10
2018-04-19T00:24:45.027Z,19.10
2018-04-19T00:27:16.387Z,19.00
2018-04-19T00:29:48.522Z,19.00
2018-04-19T00:32:19.781Z,18.90
2018-04-19T00:34:51.106Z,18.90
2018-04-19T00:37:22.601Z,18.90
2018-04-19T00:39:54.045Z,18.90
2018-04-19T00:42:25.412Z,18.90
2018-04-19T00:44:56.941Z,18.90
2018-04-19T00:47:28.310Z,18.90
2018-04-19T00:49:59.623Z,18.80
2018-04-19T00:52:47.917Z,18.90
2018-04-19T00:55:19.270Z,18.80
2018-04-19T00:57:51.395Z,18.70
2018-04-19T01:00:23.510Z,18.70
2018-04-19T01:02:55.657Z,18.70
2018-04-19T01:05:27.159Z,18.60
2018-04-19T01:07:58.473Z,18.60
2018-04-19T01:10:30.090Z,18.60
2018-04-19T01:13:01.532Z,18.50
2018-04-19T01:15:32.995Z,18.50
2018-04-19T01:18:04.334Z,18.50
2018-04-19T01:20:35.469Z,18.40
2018-04-19T01:23:06.787Z,18.40
2018-04-19T01:25:38.936Z,18.30
2018-04-19T01:28:10.457Z,18.30
2018-04-19T01:30:42.114Z,18.30
2018-04-19T01:33:13.446Z,18.30
2018-04-19T01:36:01.637Z,18.20
2018-04-19T01:38:32.967Z,18.20
2018-04-19T01:41:05.329Z,18.10
2018-04-19T01:43:36.413Z,18.10
2018-04-19T01:46:07.958Z,18.10
2018-04-19T01:48:39.345Z,18.00
2018-04-19T01:51:10.701Z,18.00
2018-04-19T01:53:42.071Z,17.90
2018-04-19T01:56:13.546Z,17.90
2018-04-19T01:58:44.901Z,17.90
2018-04-19T02:01:16.246Z,17.90
2018-04-19T02:03:48.180Z,17.80
2018-04-19T02:06:19.566Z,17.80
2018-04-19T02:08:50.958Z,17.80
2018-04-19T02:11:22.595Z,17.80
2018-04-19T02:13:54.490Z,17.70
2018-04-19T02:16:26.577Z,17.70
2018-04-19T02:18:58.026Z,17.70
2018-04-19T02:21:29.489Z,17.70
2018-04-19T02:24:00.924Z,17.70
2018-04-19T02:26:33.007Z,17.60
2018-04-19T02:29:04.364Z,17.60
2018-04-19T02:31:35.717Z,17.60
2018-04-19T02:34:07.110Z,17.60
2018-04-19T02:36:39.234Z,17.50
2018-04-19T02:39:11.169Z,17.50
2018-04-19T02:41:47.295Z,17.50
2018-04-19T02:44:19.627Z,17.50
2018-04-19T02:46:50.983Z,17.40
2018-04-19T02:49:22.177Z,17.40
2018-04-19T02:51:53.527Z,17.40
2018-04-19T02:54:24.727Z,17.40
2018-04-19T02:56:56.063Z,17.30
2018-04-19T02:59:28.949Z,17.30
2018-04-19T03:02:01.050Z,17.30
2018-04-19T03:04:32.245Z,17.30
2018-04-19T03:07:03.888Z,17.30
2018-04-19T03:09:37.049Z,17.20
2018-04-19T03:12:08.343Z,17.20
2018-04-19T03:14:40.365Z,17.20
2018-04-19T03:17:11.551Z,17.20
2018-04-19T03:19:42.900Z,17.20
2018-04-19T03:22:14.285Z,17.20
2018-04-19T03:24:45.488Z,17.10
2018-04-19T03:27:16.438Z,17.10
2018-04-19T03:29:48.405Z,17.10
2018-04-19T03:32:20.499Z,17.00
2018-04-19T03:34:52.701Z,17.00
2018-04-19T03:37:24.055Z,17.00
2018-04-19T03:39:56.258Z,17.00
2018-04-19T03:42:27.792Z,17.00
2018-04-19T03:44:59.958Z,16.90
2018-04-19T03:47:31.156Z,16.90
2018-04-19T03:50:02.556Z,16.90
2018-04-19T03:52:34.805Z,16.90
2018-04-19T03:55:05.701Z,16.80
2018-04-19T03:57:37.034Z,16.80
2018-04-19T04:00:08.062Z,16.80
2018-04-19T04:02:39.535Z,16.80
2018-04-19T04:05:11.507Z,16.70
2018-04-19T04:07:42.971Z,16.70
2018-04-19T04:10:14.342Z,16.70
2018-04-19T04:12:46.418Z,16.70
2018-04-19T04:15:18.655Z,16.60
2018-04-19T04:18:02.651Z,16.60
2018-04-19T04:20:50.850Z,16.60
2018-04-19T04:23:41.084Z,16.60
2018-04-19T04:26:13.196Z,16.40
2018-04-19T04:28:44.534Z,16.40
2018-04-19T04:31:15.951Z,16.40
2018-04-19T04:33:47.580Z,16.40
2018-04-19T04:36:18.901Z,16.40
2018-04-19T04:38:50.037Z,16.30
2018-04-19T04:41:21.517Z,16.30
2018-04-19T04:43:53.047Z,16.30
2018-04-19T04:46:24.496Z,16.20
2018-04-19T04:48:55.906Z,16.20
2018-04-19T04:51:27.451Z,16.20
2018-04-19T04:53:58.791Z,16.20
2018-04-19T04:56:30.078Z,16.20
2018-04-19T04:59:02.220Z,16.20
2018-04-19T05:01:33.655Z,16.20
2018-04-19T05:04:05.309Z,16.20
2018-04-19T05:06:37.222Z,16.20
2018-04-19T05:09:08.415Z,16.20
2018-04-19T05:11:39.583Z,16.20
2018-04-19T05:14:12.431Z,16.20
2018-04-19T05:16:43.829Z,16.20
2018-04-19T05:19:16.016Z,16.30
2018-04-19T05:21:48.298Z,16.30
2018-04-19T05:24:19.716Z,16.30
2018-04-19T05:26:51.805Z,16.40
2018-04-19T05:29:23.169Z,16.30
2018-04-19T05:31:54.800Z,16.40
2018-04-19T05:34:26.591Z,16.40
2018-04-19T05:36:58.670Z,16.50
2018-04-19T05:39:30.033Z,16.50
2018-04-19T05:42:02.172Z,16.60
2018-04-19T05:44:33.525Z,16.60
2018-04-19T05:47:04.691Z,16.70
2018-04-19T05:49:36.412Z,16.70
2018-04-19T05:52:08.242Z,16.80
2018-04-19T05:54:40.135Z,16.90
2018-04-19T05:57:12.502Z,17.00
2018-04-19T05:59:44.927Z,17.00
2018-04-19T06:02:16.382Z,17.00
2018-04-19T06:04:47.764Z,17.10
2018-04-19T06:07:19.397Z,17.20
2018-04-19T06:09:51.659Z,17.40
2018-04-19T06:12:23.820Z,17.40
2018-04-19T06:14:55.334Z,17.40
2018-04-19T06:17:27.584Z,17.60
2018-04-19T06:19:59.127Z,17.60
2018-04-19T06:22:30.236Z,17.70
2018-04-19T06:25:01.854Z,17.80
2018-04-19T06:27:33.877Z,17.90
2018-04-19T06:30:06.762Z,18.00
2018-04-19T06:32:38.448Z,18.10
2018-04-19T06:35:10.566Z,18.30
2018-04-19T06:37:41.932Z,18.30
2018-04-19T06:40:13.406Z,18.40
2018-04-19T06:42:44.763Z,18.50
2018-04-19T06:45:16.468Z,18.60
2018-04-19T06:47:47.887Z,18.70
2018-04-19T06:50:20.010Z,19.00
2018-04-19T06:52:51.423Z,19.00
2018-04-19T06:55:22.818Z,19.10
2018-04-19T06:57:54.380Z,19.20
2018-04-19T07:00:26.554Z,19.40
2018-04-19T07:02:58.077Z,19.40
2018-04-19T07:05:29.558Z,19.60
2018-04-19T07:08:01.877Z,19.90
2018-04-19T07:10:33.226Z,19.90
2018-04-19T07:13:04.925Z,20.00
2018-04-19T07:15:36.590Z,20.20
2018-04-19T07:18:08.721Z,20.10
2018-04-19T07:20:40.058Z,20.50
2018-04-19T07:23:12.280Z,21.00
2018-04-19T07:25:43.991Z,20.90
2018-04-19T07:28:16.594Z,21.40
2018-04-19T07:30:47.918Z,21.30
2018-04-19T07:33:19.414Z,21.50
2018-04-19T07:35:50.858Z,21.70
2018-04-19T07:38:22.315Z,21.90
2018-04-19T07:40:55.172Z,22.30
2018-04-19T07:43:26.602Z,22.30
2018-04-19T07:45:58.295Z,22.70
2018-04-19T07:48:29.628Z,22.70
2018-04-19T07:51:00.757Z,22.90
2018-04-19T07:53:32.114Z,23.00
2018-04-19T07:56:03.513Z,23.30
2018-04-19T07:58:36.418Z,23.60
2018-04-19T08:01:07.758Z,23.60
2018-04-19T08:03:39.659Z,23.90
2018-04-19T08:06:11.106Z,23.90
2018-04-19T08:08:42.508Z,24.10
2018-04-19T08:11:13.958Z,24.20
2018-04-19T08:13:45.510Z,24.40
2018-04-19T08:16:17.056Z,24.50
2018-04-19T08:18:48.764Z,24.60
2018-04-19T08:21:21.199Z,24.90
2018-04-19T08:23:53.435Z,25.00
2018-04-19T08:26:24.802Z,25.00
2018-04-19T08:28:56.311Z,25.10
2018-04-19T08:31:28.508Z,25.40
2018-04-19T08:34:00.922Z,25.50
2018-04-19T08:36:32.566Z,25.50
2018-04-19T08:39:03.669Z,25.60
2018-04-19T08:41:34.812Z,25.70
2018-04-19T08:44:06.935Z,26.00
2018-04-19T08:46:37.983Z,25.90
2018-04-19T08:49:09.624Z,26.10
2018-04-19T08:51:41.204Z,26.20
2018-04-19T08:54:13.354Z,26.40
2018-04-19T08:56:44.766Z,26.30
2018-04-19T08:59:16.326Z,26.50
2018-04-19T09:01:48.748Z,26.60
2018-04-19T09:04:20.881Z,26.70
2018-04-19T09:06:52.585Z,26.70
2018-04-19T09:09:23.994Z,26.80
2018-04-19T09:11:55.521Z,26.90
2018-04-19T09:14:26.960Z,27.00
2018-04-19T09:16:59.141Z,27.20
2018-04-19T09:19:31.570Z,27.30
2018-04-19T09:22:03.127Z,27.20
2018-04-19T09:24:35.360Z,27.50
2018-04-19T09:27:06.799Z,27.50
2018-04-19T09:29:37.917Z,27.60
2018-04-19T09:32:10.062Z,27.80
2018-04-19T09:34:42.266Z,28.00
2018-04-19T09:39:51.466Z,28.00
2018-04-19T09:42:22.870Z,28.20
2018-04-19T09:44:54.331Z,28.30
2018-04-19T09:47:25.950Z,28.50
2018-04-19T09:49:57.379Z,28.70
2018-04-19T09:52:30.038Z,29.00
2018-04-19T09:55:01.456Z,29.00
2018-04-19T09:57:32.954Z,29.20
2018-04-19T10:00:04.004Z,29.40
2018-04-19T10:02:35.383Z,29.60
2018-04-19T10:05:06.517Z,29.90
2018-04-19T10:07:38.694Z,30.50
2018-04-19T10:10:10.453Z,30.40
2018-04-19T10:12:41.837Z,30.80
2018-04-19T10:15:13.952Z,31.40
2018-04-19T10:17:46.918Z,31.60
2018-04-19T10:20:19.621Z,31.90
2018-04-19T10:22:52.281Z,32.20
2018-04-19T10:25:25.198Z,32.60
2018-04-19T10:27:57.213Z,32.50
2018-04-19T10:30:29.221Z,32.90
2018-04-19T10:33:01.904Z,33.60
2018-04-19T10:35:34.554Z,34.00
2018-04-19T10:38:06.648Z,34.00
2018-04-19T10:40:38.339Z,34.40
2018-04-19T10:43:10.769Z,34.80
2018-04-19T10:45:43.082Z,35.10
2018-04-19T10:48:15.775Z,35.70
2018-04-19T10:50:47.674Z,35.70
2018-04-19T10:53:20.450Z,36.40
2018-04-19T10:55:52.603Z,36.40
2018-04-19T10:58:24.566Z,36.70
2018-04-19T11:00:56.535Z,37.10
2018-04-19T11:03:28.896Z,37.40
2018-04-19T11:06:00.771Z,37.80
2018-04-19T11:08:32.912Z,38.10
2018-04-19T11:11:05.411Z,38.80
2018-04-19T11:13:37.479Z,38.70
2018-04-19T11:16:10.283Z,39.50
2018-04-19T11:18:43.164Z,39.80
2018-04-19T11:21:16.003Z,40.00
2018-04-19T11:23:47.929Z,40.00
2018-04-19T11:26:20.611Z,40.40
2018-04-19T11:28:53.457Z,40.60
2018-04-19T11:31:25.475Z,40.60
2018-04-19T11:33:58.197Z,41.10
2018-04-19T11:36:30.185Z,41.00
2018-04-19T11:39:02.448Z,41.30
2018-04-19T11:41:34.827Z,41.50
2018-04-19T11:44:06.851Z,41.80
2018-04-19T11:46:38.537Z,41.90
2018-04-19T11:49:10.444Z,42.20
2018-04-19T11:51:42.703Z,42.40
2018-04-19T11:54:15.350Z,42.90
2018-04-19T11:56:47.058Z,42.90
2018-04-19T11:59:19.005Z,43.20
2018-04-19T12:01:51.203Z,43.50
2018-04-19T12:04:23.833Z,44.00
2018-04-19T12:06:58.206Z,43.90
2018-04-19T12:09:30.085Z,44.20
2018-04-19T12:12:01.743Z,44.50
2018-04-19T12:14:34.191Z,44.80
2018-04-19T12:17:05.811Z,44.80
2018-04-19T12:19:38.073Z,45.00
2018-04-19T12:22:10.470Z,45.10
2018-04-19T12:24:42.170Z,45.10
2018-04-19T12:27:13.866Z,45.20
2018-04-19T12:29:46.338Z,45.50
2018-04-19T12:32:18.548Z,45.50
2018-04-19T12:34:49.918Z,45.50
2018-04-19T12:37:21.543Z,45.60
2018-04-19T12:39:53.441Z,45.70
2018-04-19T12:42:24.747Z,45.70
2018-04-19T12:44:56.580Z,45.80
2018-04-19T12:47:28.472Z,45.90
2018-04-19T12:49:59.943Z,45.90
2018-04-19T12:52:31.593Z,46.00
2018-04-19T12:55:04.219Z,45.90
2018-04-19T12:57:36.137Z,45.90
2018-04-19T13:00:07.750Z,45.80
2018-04-19T13:02:39.735Z,45.70
2018-04-19T13:05:12.125Z,45.50
2018-04-19T13:07:43.758Z,45.50
2018-04-19T13:10:19.048Z,45.40
2018-04-19T13:12:50.721Z,45.30
2018-04-19T13:15:22.644Z,45.30
2018-04-19T13:17:54.315Z,45.20
2018-04-19T13:20:26.686Z,44.90
2018-04-19T13:22:59.029Z,44.70
2018-04-19T13:25:30.928Z,44.40
2018-04-19T13:28:03.641Z,43.50
2018-04-19T13:30:35.571Z,43.40
2018-04-19T13:33:07.676Z,42.80
2018-04-19T13:35:39.730Z,42.20
2018-04-19T13:38:11.868Z,41.30
2018-04-19T13:40:43.846Z,41.10
2018-04-19T13:43:16.652Z,40.10
2018-04-19T13:45:48.661Z,40.10
2018-04-19T13:48:21.496Z,39.30
2018-04-19T13:50:53.559Z,39.30
2018-04-19T13:53:25.454Z,39.00
2018-04-19T13:55:58.158Z,38.70
2018-04-19T13:58:31.009Z,38.10
2018-04-19T14:01:02.722Z,38.10
2018-04-19T14:03:37.211Z,37.90
2018-04-19T14:06:09.885Z,37.50
2018-04-19T14:08:41.856Z,37.40
2018-04-19T14:11:13.750Z,37.30
2018-04-19T14:13:45.755Z,37.00
2018-04-19T14:16:17.685Z,36.80
2018-04-19T14:18:49.604Z,36.50
2018-04-19T14:21:21.806Z,36.30
2018-04-19T14:23:54.722Z,35.90
2018-04-19T14:26:26.641Z,35.80
2018-04-19T14:28:58.646Z,35.70
2018-04-19T14:31:30.650Z,35.50
2018-04-19T14:34:03.741Z,35.30
2018-04-19T14:36:36.554Z,35.10
2018-04-19T14:39:09.310Z,35.00
2018-04-19T14:41:41.139Z,35.00
2018-04-19T14:44:13.021Z,35.00
2018-04-19T14:46:44.877Z,34.90
2018-04-19T14:49:16.820Z,34.80
2018-04-19T14:51:49.696Z,34.70
2018-04-19T14:54:22.570Z,34.70
2018-04-19T14:56:54.548Z,34.60
2018-04-19T14:59:26.560Z,34.50
2018-04-19T15:01:58.580Z,34.50
2018-04-19T15:04:30.579Z,34.40
2018-04-19T15:07:02.707Z,34.30
2018-04-19T15:09:34.434Z,34.20
2018-04-19T15:12:11.174Z,34.00
2018-04-19T15:14:43.216Z,33.90
2018-04-19T15:17:15.141Z,34.00
2018-04-19T15:19:47.983Z,33.80
2018-04-19T15:22:20.184Z,33.70
2018-04-19T15:24:52.270Z,33.70
2018-04-19T15:27:24.116Z,33.60
2018-04-19T15:29:56.794Z,33.40
2018-04-19T15:35:06.525Z,33.40
2018-04-19T15:37:38.385Z,33.40
2018-04-19T15:40:10.358Z,33.30
2018-04-19T15:42:42.489Z,33.30
2018-04-19T15:45:14.854Z,33.30
2018-04-19T15:47:47.057Z,33.20
2018-04-19T15:50:19.023Z,33.20
2018-04-19T15:52:51.195Z,33.10
2018-04-19T15:55:23.360Z,33.10
2018-04-19T15:57:55.312Z,33.10
2018-04-19T16:00:27.665Z,32.90
2018-04-19T16:03:00.624Z,32.90
2018-04-19T16:05:32.961Z,32.90
2018-04-19T16:08:05.742Z,32.80
2018-04-19T16:10:38.202Z,32.70
2018-04-19T16:13:10.170Z,32.70
2018-04-19T16:15:42.541Z,32.70
2018-04-19T16:18:14.532Z,32.60
2018-04-19T16:20:45.962Z,32.60
2018-04-19T16:23:17.391Z,32.60
2018-04-19T16:25:49.339Z,32.60
2018-04-19T16:28:20.850Z,32.50
2018-04-19T16:30:52.291Z,32.40
2018-04-19T16:33:23.646Z,32.40
2018-04-19T16:35:55.091Z,32.40
2018-04-19T16:38:27.352Z,32.30
2018-04-19T16:40:59.598Z,32.30
2018-04-19T16:43:31.090Z,32.20
2018-04-19T16:46:03.236Z,32.20
2018-04-19T16:48:34.716Z,32.10
2018-04-19T16:51:05.999Z,32.10
2018-04-19T16:53:37.419Z,32.10
2018-04-19T16:56:08.863Z,32.10
2018-04-19T16:58:40.384Z,32.00
2018-04-19T17:01:11.792Z,32.00
2018-04-19T17:03:43.082Z,32.00
2018-04-19T17:06:18.293Z,31.90
2018-04-19T17:08:49.625Z,31.90
2018-04-19T17:11:21.159Z,31.80
2018-04-19T17:13:53.643Z,31.70
2018-04-19T17:16:25.046Z,31.70
2018-04-19T17:18:56.445Z,31.70
2018-04-19T17:21:28.646Z,31.60
2018-04-19T17:23:59.785Z,31.50
2018-04-19T17:26:31.287Z,31.50
2018-04-19T17:29:03.233Z,31.40
2018-04-19T17:31:34.622Z,31.40
2018-04-19T17:34:06.058Z,31.40
2018-04-19T17:36:38.515Z,31.20
2018-04-19T17:39:10.674Z,31.20
2018-04-19T17:41:42.851Z,31.10
2018-04-19T17:44:15.087Z,31.10
2018-04-19T17:46:46.493Z,31.00
2018-04-19T17:49:18.733Z,30.90
2018-04-19T17:51:50.166Z,30.90
2018-04-19T17:54:21.518Z,30.90
2018-04-19T17:56:52.903Z,30.80
2018-04-19T17:59:24.350Z,30.70
2018-04-19T18:01:55.861Z,30.70
2018-04-19T18:04:27.489Z,30.70
2018-04-19T18:06:59.631Z,30.50
2018-04-19T18:09:31.037Z,30.40
2018-04-19T18:12:02.490Z,30.40
2018-04-19T18:14:34.986Z,30.30
2018-04-19T18:17:06.389Z,30.20
2018-04-19T18:19:38.495Z,30.10
2018-04-19T18:22:09.919Z,30.10
2018-04-19T18:24:42.199Z,29.90
2018-04-19T18:27:13.841Z,29.90
2018-04-19T18:29:45.228Z,29.90
2018-04-19T18:32:16.759Z,29.80
2018-04-19T18:34:48.165Z,29.70
2018-04-19T18:37:19.414Z,29.60
2018-04-19T18:42:29.753Z,29.40
2018-04-19T18:45:00.891Z,29.40
2018-04-19T18:47:32.257Z,29.30
2018-04-19T18:50:03.650Z,29.20
2018-04-19T18:52:35.778Z,29.00
2018-04-19T18:55:07.181Z,29.00
2018-04-19T18:57:40.582Z,28.80
2018-04-19T19:00:12.733Z,28.70
2018-04-19T19:02:45.320Z,28.80
2018-04-19T19:05:16.917Z,28.70
2018-04-19T19:07:48.355Z,28.60
2018-04-19T19:10:19.795Z,28.40
2018-04-19T19:12:51.419Z,28.30
2018-04-19T20:01:52.454Z,25.90
2018-04-19T20:04:24.168Z,25.60
2018-04-19T20:06:55.583Z,25.40
2018-04-19T20:09:27.178Z,25.00
2018-04-19T20:11:58.556Z,25.10
2018-04-19T20:14:29.932Z,25.00
2018-04-19T20:17:01.318Z,24.90
2018-04-19T20:19:32.442Z,24.80
2018-04-19T20:22:04.303Z,24.70
2018-04-19T20:24:35.730Z,24.60
2018-04-19T20:27:06.766Z,24.50
2018-04-19T20:29:38.102Z,24.40
2018-04-19T20:32:09.473Z,24.40
2018-04-19T20:34:40.859Z,24.30
2018-04-19T20:37:12.351Z,24.20
2018-04-19T20:39:43.419Z,24.10
2018-04-19T20:42:15.630Z,24.00
2018-04-19T20:44:47.018Z,23.90
2018-04-19T20:47:18.437Z,23.90
2018-04-19T20:49:50.353Z,23.80
2018-04-19T20:52:22.202Z,23.70
2018-04-19T20:54:53.859Z,23.70
2018-04-19T20:57:26.047Z,23.50
2018-04-19T20:59:57.434Z,23.50
2018-04-19T21:02:28.795Z,23.40
2018-04-19T21:05:00.233Z,23.40
2018-04-19T21:07:32.675Z,23.20
2018-04-19T21:10:04.127Z,23.20
2018-04-19T21:12:35.318Z,23.10
2018-04-19T21:15:06.734Z,23.10
2018-04-19T21:17:37.782Z,23.00
2018-04-19T21:20:09.943Z,22.90
2018-04-19T21:22:41.878Z,22.80
2018-04-19T21:25:13.260Z,22.70
2018-04-19T21:27:44.629Z,22.70
2018-04-19T21:30:16.121Z,22.60
2018-04-19T21:32:47.482Z,22.60
2018-04-19T21:35:18.872Z,22.50
2018-04-19T21:37:50.500Z,22.50
2018-04-19T21:40:21.917Z,22.40
2018-04-19T21:42:53.278Z,22.40
2018-04-19T21:45:24.670Z,22.40
2018-04-19T21:47:55.994Z,22.40
2018-04-19T21:50:27.378Z,22.40
2018-04-19T21:52:58.768Z,22.40
2018-04-19T21:55:30.100Z,22.40
2018-04-19T21:58:01.645Z,22.50
2018-04-19T22:00:33.133Z,22.50
2018-04-19T22:03:04.622Z,22.50
2018-04-19T22:05:36.801Z,22.50
2018-04-19T22:08:08.919Z,22.50
2018-04-19T22:10:40.470Z,22.40
2018-04-19T22:13:11.814Z,22.50
2018-04-19T22:15:43.300Z,22.40
2018-04-19T22:18:15.478Z,22.40
2018-04-19T22:20:46.874Z,22.40
2018-04-19T22:23:18.287Z,22.30
2018-04-19T22:25:49.696Z,22.30
2018-04-19T22:28:21.064Z,22.30
2018-04-19T22:30:53.958Z,22.20
2018-04-19T22:33:26.146Z,22.20
2018-04-19T22:35:57.354Z,22.20
2018-04-19T22:38:28.733Z,22.20
2018-04-19T22:41:03.396Z,22.10
2018-04-19T22:43:35.495Z,22.10
2018-04-19T22:46:06.846Z,22.00
2018-04-19T22:48:38.175Z,22.00
2018-04-19T22:51:09.576Z,22.00
2018-04-19T22:53:40.939Z,22.00
2018-04-19T22:56:13.986Z,21.90
2018-04-19T22:58:45.292Z,21.90
2018-04-19T23:01:17.755Z,21.90
2018-04-19T23:03:49.408Z,21.80
2018-04-19T23:06:21.053Z,21.80
2018-04-19T23:08:52.428Z,21.80
2018-04-19T23:11:23.812Z,21.70
2018-04-19T23:13:55.145Z,21.70
2018-04-19T23:16:26.533Z,21.70
2018-04-19T23:18:57.866Z,21.60
2018-04-19T23:21:29.241Z,21.60
2018-04-19T23:24:00.873Z,21.50
2018-04-19T23:26:32.217Z,21.50
2018-04-19T23:29:03.573Z,21.40
2018-04-19T23:31:34.889Z,21.40
2018-04-19T23:34:07.914Z,21.30
2018-04-19T23:36:39.228Z,21.30
2018-04-19T23:39:10.580Z,21.20
2018-04-19T23:41:42.076Z,21.20
2018-04-19T23:44:13.424Z,21.10
2018-04-19T23:46:44.808Z,21.10
2018-04-19T23:49:16.953Z,21.00
2018-04-19T23:51:48.508Z,21.00
2018-04-19T23:54:19.822Z,21.00
2018-04-19T23:59:27.628Z,20.90
